sensor_id;sensor_type;location;lat;lon;timestamp;P1;durP1;ratioP1;P2;durP2;ratioP2
69799;SDS011;67217;51.008;4.644;2023-02-26T05:05:49;17.70;;;3.60;;
69799;SDS011;67217;51.008;4.644;2023-02-26T05:08:17;8.45;;;2.72;;
69799;SDS011;67217;51.008;4.644;2023-02-26T05:10:45;12.95;;;3.08;;
69799;SDS011;67217;51.008;4.644;2023-02-26T05:13:14;11.00;;;2.70;;
69799;SDS011;67217;51.008;4.644;2023-02-26T05:15:42;13.80;;;3.10;;
69799;SDS011;67217;51.008;4.644;2023-02-26T05:18:09;12.20;;;3.27;;
69799;SDS011;67217;51.008;4.644;2023-02-26T05:20:37;12.15;;;3.05;;
69799;SDS011;67217;51.008;4.644;2023-02-26T05:23:06;11.78;;;2.90;;
69799;SDS011;67217;51.008;4.644;2023-02-26T05:25:34;7.50;;;2.52;;
69799;SDS011;67217;51.008;4.644;2023-02-26T05:28:02;13.70;;;3.12;;
69799;SDS011;67217;51.008;4.644;2023-02-26T05:30:29;11.12;;;2.60;;
69799;SDS011;67217;51.008;4.644;2023-02-26T05:32:57;17.20;;;2.92;;
69799;SDS011;67217;51.008;4.644;2023-02-26T05:35:25;14.55;;;2.90;;
69799;SDS011;67217;51.008;4.644;2023-02-26T05:37:53;12.63;;;3.10;;
69799;SDS011;67217;51.008;4.644;2023-02-26T05:40:20;13.10;;;2.52;;
69799;SDS011;67217;51.008;4.644;2023-02-26T05:42:48;14.13;;;3.17;;
69799;SDS011;67217;51.008;4.644;2023-02-26T05:45:16;8.63;;;2.80;;
69799;SDS011;67217;51.008;4.644;2023-02-26T05:47:45;17.23;;;2.72;;
69799;SDS011;67217;51.008;4.644;2023-02-26T05:50:12;9.48;;;2.83;;
69799;SDS011;67217;51.008;4.644;2023-02-26T05:52:40;9.13;;;2.45;;
69799;SDS011;67217;51.008;4.644;2023-02-26T05:55:08;8.55;;;2.70;;
69799;SDS011;67217;51.008;4.644;2023-02-26T05:57:36;13.50;;;2.65;;
69799;SDS011;67217;51.008;4.644;2023-02-26T06:00:04;17.23;;;3.02;;
69799;SDS011;67217;51.008;4.644;2023-02-26T06:05:01;8.75;;;2.45;;
69799;SDS011;67217;51.008;4.644;2023-02-26T06:07:29;10.05;;;2.65;;
69799;SDS011;67217;51.008;4.644;2023-02-26T06:09:57;11.83;;;2.92;;
69799;SDS011;67217;51.008;4.644;2023-02-26T06:12:25;8.88;;;2.30;;
69799;SDS011;67217;51.008;4.644;2023-02-26T06:14:53;11.25;;;2.45;;
69799;SDS011;67217;51.008;4.644;2023-02-26T06:17:20;10.45;;;2.27;;
69799;SDS011;67217;51.008;4.644;2023-02-26T06:19:48;9.68;;;2.70;;
69799;SDS011;67217;51.008;4.644;2023-02-26T06:22:17;9.33;;;2.60;;
69799;SDS011;67217;51.008;4.644;2023-02-26T06:24:45;11.55;;;2.30;;
69799;SDS011;67217;51.008;4.644;2023-02-26T06:27:13;11.80;;;3.20;;
69799;SDS011;67217;51.008;4.644;2023-02-26T06:29:42;11.48;;;2.62;;
69799;SDS011;67217;51.008;4.644;2023-02-26T06:32:09;10.30;;;2.72;;
69799;SDS011;67217;51.008;4.644;2023-02-26T06:34:37;9.00;;;2.60;;
69799;SDS011;67217;51.008;4.644;2023-02-26T06:37:05;10.80;;;2.60;;
69799;SDS011;67217;51.008;4.644;2023-02-26T06:39:33;8.30;;;2.42;;
69799;SDS011;67217;51.008;4.644;2023-02-26T06:42:01;14.93;;;2.98;;
69799;SDS011;67217;51.008;4.644;2023-02-26T06:44:30;6.70;;;2.00;;
69799;SDS011;67217;51.008;4.644;2023-02-26T06:46:58;12.58;;;2.70;;
69799;SDS011;67217;51.008;4.644;2023-02-26T06:49:26;10.88;;;2.30;;
69799;SDS011;67217;51.008;4.644;2023-02-26T06:51:54;12.73;;;2.10;;
69799;SDS011;67217;51.008;4.644;2023-02-26T06:54:21;13.43;;;2.75;;
69799;SDS011;67217;51.008;4.644;2023-02-26T06:56:49;8.85;;;2.25;;
69799;SDS011;67217;51.008;4.644;2023-02-26T06:59:17;10.58;;;2.60;;
69799;SDS011;67217;51.008;4.644;2023-02-26T07:01:46;11.70;;;2.90;;
69799;SDS011;67217;51.008;4.644;2023-02-26T07:04:14;10.23;;;2.80;;
69799;SDS011;67217;51.008;4.644;2023-02-26T07:06:43;11.40;;;2.25;;
69799;SDS011;67217;51.008;4.644;2023-02-26T07:09:10;11.10;;;3.02;;
69799;SDS011;67217;51.008;4.644;2023-02-26T07:11:38;6.03;;;2.22;;
69799;SDS011;67217;51.008;4.644;2023-02-26T07:14:06;9.88;;;2.10;;
69799;SDS011;67217;51.008;4.644;2023-02-26T07:16:34;15.70;;;2.25;;
69799;SDS011;67217;51.008;4.644;2023-02-26T07:19:02;13.80;;;2.52;;
69799;SDS011;67217;51.008;4.644;2023-02-26T07:21:30;11.48;;;2.58;;
69799;SDS011;67217;51.008;4.644;2023-02-26T07:23:57;10.53;;;1.95;;
69799;SDS011;67217;51.008;4.644;2023-02-26T07:26:25;8.40;;;2.02;;
69799;SDS011;67217;51.008;4.644;2023-02-26T07:28:53;9.10;;;2.15;;
69799;SDS011;67217;51.008;4.644;2023-02-26T07:31:21;9.15;;;2.17;;
69799;SDS011;67217;51.008;4.644;2023-02-26T07:33:49;12.53;;;2.10;;
69799;SDS011;67217;51.008;4.644;2023-02-26T07:36:17;11.25;;;2.20;;
69799;SDS011;67217;51.008;4.644;2023-02-26T07:38:45;10.32;;;2.52;;
69799;SDS011;67217;51.008;4.644;2023-02-26T07:41:13;13.03;;;2.27;;
69799;SDS011;67217;51.008;4.644;2023-02-26T07:43:40;8.98;;;2.50;;
69799;SDS011;67217;51.008;4.644;2023-02-26T07:46:08;17.30;;;2.50;;
69799;SDS011;67217;51.008;4.644;2023-02-26T07:48:36;8.85;;;1.98;;
69799;SDS011;67217;51.008;4.644;2023-02-26T07:51:06;8.40;;;2.45;;
69799;SDS011;67217;51.008;4.644;2023-02-26T07:53:35;6.42;;;2.17;;
69799;SDS011;67217;51.008;4.644;2023-02-26T07:56:03;8.28;;;2.00;;
69799;SDS011;67217;51.008;4.644;2023-02-26T07:58:31;10.40;;;2.20;;
69799;SDS011;67217;51.008;4.644;2023-02-26T08:00:59;8.13;;;2.30;;
69799;SDS011;67217;51.008;4.644;2023-02-26T08:03:27;12.80;;;2.12;;
69799;SDS011;67217;51.008;4.644;2023-02-26T08:05:54;8.10;;;2.10;;
69799;SDS011;67217;51.008;4.644;2023-02-26T08:08:24;11.80;;;2.25;;
69799;SDS011;67217;51.008;4.644;2023-02-26T08:10:53;9.55;;;2.20;;
69799;SDS011;67217;51.008;4.644;2023-02-26T08:13:21;9.73;;;2.08;;
69799;SDS011;67217;51.008;4.644;2023-02-26T08:15:49;9.05;;;2.47;;
69799;SDS011;67217;51.008;4.644;2023-02-26T08:18:17;5.67;;;2.10;;
69799;SDS011;67217;51.008;4.644;2023-02-26T08:20:45;9.10;;;2.45;;
69799;SDS011;67217;51.008;4.644;2023-02-26T08:23:13;7.12;;;1.82;;
69799;SDS011;67217;51.008;4.644;2023-02-26T08:25:41;7.78;;;2.20;;
69799;SDS011;67217;51.008;4.644;2023-02-26T08:28:10;9.65;;;1.87;;
69799;SDS011;67217;51.008;4.644;2023-02-26T08:30:38;12.07;;;1.92;;
69799;SDS011;67217;51.008;4.644;2023-02-26T08:33:06;11.90;;;1.98;;
69799;SDS011;67217;51.008;4.644;2023-02-26T08:35:34;5.20;;;1.42;;
69799;SDS011;67217;51.008;4.644;2023-02-26T08:38:01;7.15;;;1.98;;
69799;SDS011;67217;51.008;4.644;2023-02-26T08:40:30;4.95;;;1.65;;
69799;SDS011;67217;51.008;4.644;2023-02-26T08:42:58;5.85;;;1.80;;
69799;SDS011;67217;51.008;4.644;2023-02-26T08:45:28;9.13;;;1.70;;
69799;SDS011;67217;51.008;4.644;2023-02-26T08:47:56;9.48;;;1.60;;
69799;SDS011;67217;51.008;4.644;2023-02-26T08:50:24;10.25;;;1.90;;
69799;SDS011;67217;51.008;4.644;2023-02-26T08:52:52;6.53;;;1.60;;
69799;SDS011;67217;51.008;4.644;2023-02-26T08:55:21;7.20;;;1.35;;
69799;SDS011;67217;51.008;4.644;2023-02-26T08:57:49;7.47;;;1.60;;
69799;SDS011;67217;51.008;4.644;2023-02-26T09:00:17;6.17;;;1.60;;
69799;SDS011;67217;51.008;4.644;2023-02-26T09:02:45;7.58;;;1.67;;
69799;SDS011;67217;51.008;4.644;2023-02-26T09:05:13;6.95;;;1.32;;
69799;SDS011;67217;51.008;4.644;2023-02-26T09:07:42;9.10;;;1.57;;
69799;SDS011;67217;51.008;4.644;2023-02-26T09:10:11;2.98;;;1.80;;
69799;SDS011;67217;51.008;4.644;2023-02-26T09:12:39;9.10;;;1.80;;
69799;SDS011;67217;51.008;4.644;2023-02-26T09:15:07;4.22;;;1.42;;
69799;SDS011;67217;51.008;4.644;2023-02-26T09:17:36;5.35;;;1.47;;
69799;SDS011;67217;51.008;4.644;2023-02-26T09:20:05;4.67;;;1.30;;
69799;SDS011;67217;51.008;4.644;2023-02-26T09:22:34;5.42;;;1.20;;
69799;SDS011;67217;51.008;4.644;2023-02-26T09:25:03;5.62;;;1.35;;
69799;SDS011;67217;51.008;4.644;2023-02-26T09:27:32;4.90;;;1.37;;
69799;SDS011;67217;51.008;4.644;2023-02-26T09:30:02;6.53;;;1.60;;
69799;SDS011;67217;51.008;4.644;2023-02-26T09:32:31;3.50;;;1.70;;
69799;SDS011;67217;51.008;4.644;2023-02-26T09:34:59;8.13;;;1.40;;
69799;SDS011;67217;51.008;4.644;2023-02-26T09:37:27;7.25;;;1.65;;
69799;SDS011;67217;51.008;4.644;2023-02-26T09:39:55;4.97;;;1.40;;
69799;SDS011;67217;51.008;4.644;2023-02-26T09:45:31;3.10;;;1.12;;
69799;SDS011;67217;51.008;4.644;2023-02-26T09:48:01;7.08;;;1.42;;
69799;SDS011;67217;51.008;4.644;2023-02-26T09:53:11;7.53;;;1.67;;
69799;SDS011;67217;51.008;4.644;2023-02-26T09:55:39;5.60;;;1.50;;
69799;SDS011;67217;51.008;4.644;2023-02-26T09:58:27;5.35;;;1.20;;
69799;SDS011;67217;51.008;4.644;2023-02-26T10:01:00;5.15;;;1.40;;
69799;SDS011;67217;51.008;4.644;2023-02-26T10:06:30;8.33;;;1.30;;
69799;SDS011;67217;51.008;4.644;2023-02-26T10:09:21;4.70;;;1.30;;
69799;SDS011;67217;51.008;4.644;2023-02-26T10:11:55;5.75;;;1.57;;
69799;SDS011;67217;51.008;4.644;2023-02-26T10:14:27;3.60;;;1.12;;
69799;SDS011;67217;51.008;4.644;2023-02-26T10:16:55;5.78;;;1.20;;
69799;SDS011;67217;51.008;4.644;2023-02-26T10:19:27;6.83;;;1.17;;
69799;SDS011;67217;51.008;4.644;2023-02-26T10:21:56;4.60;;;1.50;;
69799;SDS011;67217;51.008;4.644;2023-02-26T10:24:31;5.53;;;1.10;;
69799;SDS011;67217;51.008;4.644;2023-02-26T10:27:02;4.92;;;1.22;;
69799;SDS011;67217;51.008;4.644;2023-02-26T10:32:37;6.95;;;1.40;;
69799;SDS011;67217;51.008;4.644;2023-02-26T10:35:26;6.78;;;1.40;;
69799;SDS011;67217;51.008;4.644;2023-02-26T10:51:18;7.00;;;1.40;;
69799;SDS011;67217;51.008;4.644;2023-02-26T10:53:46;6.42;;;1.10;;
69799;SDS011;67217;51.008;4.644;2023-02-26T10:56:16;4.05;;;1.00;;
69799;SDS011;67217;51.008;4.644;2023-02-26T10:58:45;4.67;;;1.20;;
69799;SDS011;67217;51.008;4.644;2023-02-26T11:01:16;5.12;;;1.20;;
69799;SDS011;67217;51.008;4.644;2023-02-26T11:03:45;4.95;;;1.20;;
69799;SDS011;67217;51.008;4.644;2023-02-26T11:08:44;5.40;;;1.80;;
69799;SDS011;67217;51.008;4.644;2023-02-26T11:14:02;6.67;;;1.85;;
69799;SDS011;67217;51.008;4.644;2023-02-26T11:16:30;5.80;;;1.30;;
69799;SDS011;67217;51.008;4.644;2023-02-26T11:18:59;6.87;;;1.80;;
69799;SDS011;67217;51.008;4.644;2023-02-26T11:21:29;6.58;;;1.40;;
69799;SDS011;67217;51.008;4.644;2023-02-26T11:24:03;5.62;;;1.27;;
69799;SDS011;67217;51.008;4.644;2023-02-26T11:26:34;3.52;;;1.02;;
69799;SDS011;67217;51.008;4.644;2023-02-26T11:29:02;7.40;;;1.00;;
69799;SDS011;67217;51.008;4.644;2023-02-26T11:31:31;6.55;;;1.15;;
69799;SDS011;67217;51.008;4.644;2023-02-26T11:34:03;5.22;;;1.22;;
69799;SDS011;67217;51.008;4.644;2023-02-26T11:36:33;2.55;;;0.98;;
69799;SDS011;67217;51.008;4.644;2023-02-26T11:39:16;5.87;;;1.40;;
69799;SDS011;67217;51.008;4.644;2023-02-26T11:41:47;3.27;;;1.60;;
69799;SDS011;67217;51.008;4.644;2023-02-26T11:44:17;5.50;;;1.57;;
69799;SDS011;67217;51.008;4.644;2023-02-26T11:46:57;3.75;;;1.40;;
69799;SDS011;67217;51.008;4.644;2023-02-26T11:49:24;4.55;;;1.07;;
69799;SDS011;67217;51.008;4.644;2023-02-26T11:54:38;3.87;;;1.00;;
69799;SDS011;67217;51.008;4.644;2023-02-26T11:57:13;5.03;;;1.02;;
69799;SDS011;67217;51.008;4.644;2023-02-26T11:59:44;2.05;;;1.00;;
69799;SDS011;67217;51.008;4.644;2023-02-26T12:02:17;3.17;;;1.25;;
69799;SDS011;67217;51.008;4.644;2023-02-26T12:04:50;3.92;;;1.20;;
69799;SDS011;67217;51.008;4.644;2023-02-26T12:07:19;3.58;;;1.20;;
69799;SDS011;67217;51.008;4.644;2023-02-26T12:09:48;3.12;;;1.15;;
69799;SDS011;67217;51.008;4.644;2023-02-26T12:18:02;4.10;;;1.27;;
69799;SDS011;67217;51.008;4.644;2023-02-26T12:20:45;3.22;;;1.35;;
69799;SDS011;67217;51.008;4.644;2023-02-26T12:29:09;5.55;;;1.10;;
69799;SDS011;67217;51.008;4.644;2023-02-26T12:37:32;3.55;;;1.40;;
69799;SDS011;67217;51.008;4.644;2023-02-26T12:40:04;3.72;;;1.07;;
69799;SDS011;67217;51.008;4.644;2023-02-26T12:42:47;2.50;;;0.93;;
69799;SDS011;67217;51.008;4.644;2023-02-26T12:45:51;5.17;;;1.17;;
69799;SDS011;67217;51.008;4.644;2023-02-26T12:48:27;2.55;;;0.80;;
69799;SDS011;67217;51.008;4.644;2023-02-26T12:51:00;4.20;;;1.00;;
69799;SDS011;67217;51.008;4.644;2023-02-26T12:59:25;4.83;;;1.00;;
69799;SDS011;67217;51.008;4.644;2023-02-26T13:02:03;2.98;;;0.80;;
69799;SDS011;67217;51.008;4.644;2023-02-26T13:04:35;2.12;;;0.82;;
69799;SDS011;67217;51.008;4.644;2023-02-26T13:13:24;2.80;;;0.93;;
69799;SDS011;67217;51.008;4.644;2023-02-26T13:16:13;1.90;;;0.90;;
69799;SDS011;67217;51.008;4.644;2023-02-26T13:18:56;1.90;;;0.80;;
69799;SDS011;67217;51.008;4.644;2023-02-26T13:21:28;2.37;;;0.85;;
69799;SDS011;67217;51.008;4.644;2023-02-26T13:23:58;2.75;;;1.10;;
69799;SDS011;67217;51.008;4.644;2023-02-26T13:26:29;2.00;;;0.90;;
69799;SDS011;67217;51.008;4.644;2023-02-26T13:28:59;3.50;;;0.90;;
69799;SDS011;67217;51.008;4.644;2023-02-26T13:31:31;2.65;;;0.80;;
69799;SDS011;67217;51.008;4.644;2023-02-26T13:36:56;3.30;;;0.80;;
69799;SDS011;67217;51.008;4.644;2023-02-26T13:39:31;3.67;;;0.93;;
69799;SDS011;67217;51.008;4.644;2023-02-26T13:42:14;3.98;;;1.20;;
69799;SDS011;67217;51.008;4.644;2023-02-26T13:50:04;2.72;;;0.90;;
69799;SDS011;67217;51.008;4.644;2023-02-26T13:52:51;2.67;;;0.80;;
69799;SDS011;67217;51.008;4.644;2023-02-26T14:01:15;2.50;;;0.82;;
69799;SDS011;67217;51.008;4.644;2023-02-26T14:06:22;2.85;;;1.12;;
69799;SDS011;67217;51.008;4.644;2023-02-26T14:14:43;2.50;;;0.90;;
69799;SDS011;67217;51.008;4.644;2023-02-26T14:25:09;3.30;;;0.85;;
69799;SDS011;67217;51.008;4.644;2023-02-26T14:27:50;3.17;;;0.90;;
69799;SDS011;67217;51.008;4.644;2023-02-26T14:30:29;1.90;;;0.90;;
69799;SDS011;67217;51.008;4.644;2023-02-26T14:35:32;2.65;;;1.30;;
69799;SDS011;67217;51.008;4.644;2023-02-26T14:38:05;3.60;;;1.20;;
69799;SDS011;67217;51.008;4.644;2023-02-26T14:40:49;2.30;;;1.00;;
69799;SDS011;67217;51.008;4.644;2023-02-26T14:43:30;3.27;;;0.95;;
69799;SDS011;67217;51.008;4.644;2023-02-26T14:45:50;2.27;;;1.27;;
69799;SDS011;67217;51.008;4.644;2023-02-26T14:48:20;3.90;;;1.05;;
69799;SDS011;67217;51.008;4.644;2023-02-26T15:13:19;4.12;;;1.67;;
69799;SDS011;67217;51.008;4.644;2023-02-26T15:18:57;5.30;;;1.30;;
69799;SDS011;67217;51.008;4.644;2023-02-26T15:24:17;3.22;;;0.93;;
69799;SDS011;67217;51.008;4.644;2023-02-26T15:26:50;4.50;;;1.60;;
69799;SDS011;67217;51.008;4.644;2023-02-26T15:29:25;7.10;;;1.80;;
69799;SDS011;67217;51.008;4.644;2023-02-26T15:31:54;4.87;;;1.80;;
69799;SDS011;67217;51.008;4.644;2023-02-26T15:34:25;5.55;;;1.72;;
69799;SDS011;67217;51.008;4.644;2023-02-26T15:36:53;4.35;;;1.60;;
69799;SDS011;67217;51.008;4.644;2023-02-26T15:39:23;4.08;;;1.47;;
69799;SDS011;67217;51.008;4.644;2023-02-26T15:41:51;6.08;;;1.90;;
69799;SDS011;67217;51.008;4.644;2023-02-26T15:44:29;5.12;;;1.30;;
69799;SDS011;67217;51.008;4.644;2023-02-26T15:46:59;3.10;;;1.12;;
69799;SDS011;67217;51.008;4.644;2023-02-26T15:51:57;3.45;;;1.20;;
69799;SDS011;67217;51.008;4.644;2023-02-26T15:54:28;5.25;;;1.12;;
69799;SDS011;67217;51.008;4.644;2023-02-26T15:57:03;4.37;;;1.32;;
69799;SDS011;67217;51.008;4.644;2023-02-26T15:59:31;3.80;;;1.25;;
69799;SDS011;67217;51.008;4.644;2023-02-26T16:02:00;3.70;;;1.20;;
69799;SDS011;67217;51.008;4.644;2023-02-26T16:04:29;3.85;;;1.30;;
69799;SDS011;67217;51.008;4.644;2023-02-26T16:06:58;2.35;;;1.20;;
69799;SDS011;67217;51.008;4.644;2023-02-26T16:09:28;3.75;;;1.30;;
69799;SDS011;67217;51.008;4.644;2023-02-26T16:11:58;3.40;;;1.20;;
69799;SDS011;67217;51.008;4.644;2023-02-26T16:14:42;4.75;;;1.77;;
69799;SDS011;67217;51.008;4.644;2023-02-26T16:17:06;7.03;;;2.75;;
69799;SDS011;67217;51.008;4.644;2023-02-26T16:19:37;6.20;;;1.98;;
69799;SDS011;67217;51.008;4.644;2023-02-26T16:22:18;2.40;;;1.17;;
69799;SDS011;67217;51.008;4.644;2023-02-26T16:24:39;3.42;;;1.50;;
69799;SDS011;67217;51.008;4.644;2023-02-26T16:27:09;4.72;;;1.50;;
69799;SDS011;67217;51.008;4.644;2023-02-26T16:29:42;5.30;;;1.45;;
69799;SDS011;67217;51.008;4.644;2023-02-26T16:32:10;4.78;;;1.70;;
69799;SDS011;67217;51.008;4.644;2023-02-26T16:34:41;5.90;;;1.60;;
69799;SDS011;67217;51.008;4.644;2023-02-26T16:40:03;3.87;;;1.40;;
69799;SDS011;67217;51.008;4.644;2023-02-26T16:45:15;5.00;;;1.37;;
69799;SDS011;67217;51.008;4.644;2023-02-26T16:48:03;4.50;;;1.27;;
69799;SDS011;67217;51.008;4.644;2023-02-26T16:50:33;5.08;;;1.25;;
69799;SDS011;67217;51.008;4.644;2023-02-26T16:53:15;1.47;;;0.90;;
69799;SDS011;67217;51.008;4.644;2023-02-26T16:55:46;7.53;;;1.52;;
69799;SDS011;67217;51.008;4.644;2023-02-26T16:58:18;4.78;;;1.62;;
69799;SDS011;67217;51.008;4.644;2023-02-26T17:00:51;7.08;;;2.12;;
69799;SDS011;67217;51.008;4.644;2023-02-26T17:03:22;5.25;;;1.50;;
69799;SDS011;67217;51.008;4.644;2023-02-26T17:08:35;4.08;;;1.40;;
69799;SDS011;67217;51.008;4.644;2023-02-26T17:11:08;4.90;;;1.70;;
69799;SDS011;67217;51.008;4.644;2023-02-26T17:13:37;3.67;;;1.72;;
69799;SDS011;67217;51.008;4.644;2023-02-26T17:16:08;4.87;;;2.30;;
69799;SDS011;67217;51.008;4.644;2023-02-26T17:18:37;5.42;;;2.25;;
69799;SDS011;67217;51.008;4.644;2023-02-26T17:21:04;6.85;;;2.70;;
69799;SDS011;67217;51.008;4.644;2023-02-26T17:23:35;12.28;;;3.45;;
69799;SDS011;67217;51.008;4.644;2023-02-26T17:26:04;9.98;;;4.75;;
69799;SDS011;67217;51.008;4.644;2023-02-26T17:28:32;14.33;;;6.70;;
69799;SDS011;67217;51.008;4.644;2023-02-26T17:31:04;9.80;;;5.03;;
69799;SDS011;67217;51.008;4.644;2023-02-26T17:33:32;9.08;;;3.60;;
69799;SDS011;67217;51.008;4.644;2023-02-26T17:36:02;5.80;;;3.00;;
69799;SDS011;67217;51.008;4.644;2023-02-26T17:38:30;6.35;;;2.70;;
69799;SDS011;67217;51.008;4.644;2023-02-26T17:40:58;7.92;;;4.80;;
69799;SDS011;67217;51.008;4.644;2023-02-26T17:43:26;7.33;;;4.10;;
69799;SDS011;67217;51.008;4.644;2023-02-26T17:45:55;6.60;;;3.25;;
69799;SDS011;67217;51.008;4.644;2023-02-26T17:48:22;7.67;;;3.52;;
69799;SDS011;67217;51.008;4.644;2023-02-26T17:50:51;8.15;;;3.22;;
69799;SDS011;67217;51.008;4.644;2023-02-26T17:53:21;7.10;;;2.60;;
69799;SDS011;67217;51.008;4.644;2023-02-26T17:55:52;5.87;;;3.10;;
69799;SDS011;67217;51.008;4.644;2023-02-26T18:00:55;9.25;;;3.83;;
69799;SDS011;67217;51.008;4.644;2023-02-26T18:03:23;7.00;;;3.85;;
69799;SDS011;67217;51.008;4.644;2023-02-26T18:05:51;9.15;;;4.80;;
69799;SDS011;67217;51.008;4.644;2023-02-26T18:10:49;6.45;;;2.65;;
69799;SDS011;67217;51.008;4.644;2023-02-26T18:13:17;7.30;;;2.92;;
69799;SDS011;67217;51.008;4.644;2023-02-26T18:15:45;6.05;;;2.98;;
69799;SDS011;67217;51.008;4.644;2023-02-26T18:18:14;5.40;;;2.58;;
69799;SDS011;67217;51.008;4.644;2023-02-26T18:20:43;4.03;;;2.50;;
69799;SDS011;67217;51.008;4.644;2023-02-26T18:23:11;8.48;;;2.60;;
69799;SDS011;67217;51.008;4.644;2023-02-26T18:25:41;11.33;;;2.98;;
69799;SDS011;67217;51.008;4.644;2023-02-26T18:28:16;7.72;;;2.80;;
69799;SDS011;67217;51.008;4.644;2023-02-26T18:30:45;6.65;;;2.85;;
69799;SDS011;67217;51.008;4.644;2023-02-26T18:33:13;7.10;;;3.08;;
69799;SDS011;67217;51.008;4.644;2023-02-26T18:35:42;8.63;;;3.60;;
69799;SDS011;67217;51.008;4.644;2023-02-26T18:40:43;8.80;;;3.65;;
69799;SDS011;67217;51.008;4.644;2023-02-26T18:43:12;9.50;;;5.05;;
69799;SDS011;67217;51.008;4.644;2023-02-26T18:45:44;9.50;;;6.22;;
69799;SDS011;67217;51.008;4.644;2023-02-26T18:48:14;10.88;;;7.00;;
69799;SDS011;67217;51.008;4.644;2023-02-26T18:50:43;11.73;;;6.65;;
69799;SDS011;67217;51.008;4.644;2023-02-26T18:53:12;9.48;;;6.30;;
69799;SDS011;67217;51.008;4.644;2023-02-26T18:55:41;11.45;;;6.60;;
69799;SDS011;67217;51.008;4.644;2023-02-26T18:58:09;11.90;;;5.87;;
69799;SDS011;67217;51.008;4.644;2023-02-26T19:00:37;9.48;;;5.28;;
69799;SDS011;67217;51.008;4.644;2023-02-26T19:03:06;9.08;;;4.97;;
69799;SDS011;67217;51.008;4.644;2023-02-26T19:05:34;12.95;;;5.87;;
69799;SDS011;67217;51.008;4.644;2023-02-26T19:08:03;12.82;;;5.50;;
69799;SDS011;67217;51.008;4.644;2023-02-26T19:10:31;9.25;;;4.75;;
69799;SDS011;67217;51.008;4.644;2023-02-26T19:12:59;7.28;;;4.25;;
69799;SDS011;67217;51.008;4.644;2023-02-26T19:15:29;7.90;;;4.12;;
69799;SDS011;67217;51.008;4.644;2023-02-26T19:17:57;9.30;;;4.00;;
69799;SDS011;67217;51.008;4.644;2023-02-26T19:20:25;7.50;;;3.87;;
69799;SDS011;67217;51.008;4.644;2023-02-26T19:22:53;9.08;;;3.92;;
69799;SDS011;67217;51.008;4.644;2023-02-26T19:25:21;11.85;;;3.80;;
69799;SDS011;67217;51.008;4.644;2023-02-26T19:27:50;10.15;;;4.40;;
69799;SDS011;67217;51.008;4.644;2023-02-26T19:30:19;7.08;;;4.33;;
69799;SDS011;67217;51.008;4.644;2023-02-26T19:32:48;10.70;;;4.92;;
69799;SDS011;67217;51.008;4.644;2023-02-26T19:35:17;8.85;;;4.50;;
69799;SDS011;67217;51.008;4.644;2023-02-26T19:37:46;10.82;;;4.83;;
69799;SDS011;67217;51.008;4.644;2023-02-26T19:40:15;10.35;;;4.55;;
69799;SDS011;67217;51.008;4.644;2023-02-26T19:42:44;10.35;;;4.58;;
69799;SDS011;67217;51.008;4.644;2023-02-26T19:45:13;8.93;;;4.28;;
69799;SDS011;67217;51.008;4.644;2023-02-26T19:47:43;6.47;;;3.42;;
69799;SDS011;67217;51.008;4.644;2023-02-26T19:50:11;6.90;;;4.33;;
69799;SDS011;67217;51.008;4.644;2023-02-26T19:52:40;8.68;;;4.03;;
69799;SDS011;67217;51.008;4.644;2023-02-26T19:55:08;8.88;;;4.25;;
69799;SDS011;67217;51.008;4.644;2023-02-26T19:57:36;7.60;;;4.30;;
69799;SDS011;67217;51.008;4.644;2023-02-26T20:00:04;7.67;;;4.30;;
69799;SDS011;67217;51.008;4.644;2023-02-26T20:02:32;8.83;;;4.15;;
69799;SDS011;67217;51.008;4.644;2023-02-26T20:05:00;8.05;;;4.25;;
69799;SDS011;67217;51.008;4.644;2023-02-26T20:07:30;7.08;;;3.60;;
69799;SDS011;67217;51.008;4.644;2023-02-26T20:09:59;9.18;;;3.50;;
69799;SDS011;67217;51.008;4.644;2023-02-26T20:12:27;8.13;;;3.33;;
69799;SDS011;67217;51.008;4.644;2023-02-26T20:14:55;6.70;;;3.35;;
69799;SDS011;67217;51.008;4.644;2023-02-26T20:17:23;9.43;;;3.12;;
69799;SDS011;67217;51.008;4.644;2023-02-26T20:19:50;6.62;;;2.98;;
69799;SDS011;67217;51.008;4.644;2023-02-26T20:22:19;8.25;;;3.20;;
69799;SDS011;67217;51.008;4.644;2023-02-26T20:24:48;7.60;;;3.50;;
69799;SDS011;67217;51.008;4.644;2023-02-26T20:27:18;7.40;;;3.77;;
69799;SDS011;67217;51.008;4.644;2023-02-26T20:29:46;6.05;;;3.12;;
69799;SDS011;67217;51.008;4.644;2023-02-26T20:32:15;10.38;;;3.80;;
69799;SDS011;67217;51.008;4.644;2023-02-26T20:34:43;8.40;;;3.22;;
69799;SDS011;67217;51.008;4.644;2023-02-26T20:37:11;6.60;;;3.35;;
69799;SDS011;67217;51.008;4.644;2023-02-26T20:39:39;10.03;;;4.17;;
69799;SDS011;67217;51.008;4.644;2023-02-26T20:42:07;8.23;;;3.72;;
69799;SDS011;67217;51.008;4.644;2023-02-26T20:44:35;10.40;;;3.83;;
69799;SDS011;67217;51.008;4.644;2023-02-26T20:47:03;9.08;;;3.85;;
69799;SDS011;67217;51.008;4.644;2023-02-26T20:49:31;9.30;;;4.40;;
69799;SDS011;67217;51.008;4.644;2023-02-26T20:51:59;8.38;;;4.58;;
69799;SDS011;67217;51.008;4.644;2023-02-26T20:54:27;11.40;;;4.37;;
69799;SDS011;67217;51.008;4.644;2023-02-26T20:56:55;13.45;;;5.03;;
69799;SDS011;67217;51.008;4.644;2023-02-26T20:59:23;11.83;;;4.67;;
69799;SDS011;67217;51.008;4.644;2023-02-26T21:01:51;9.85;;;4.65;;
69799;SDS011;67217;51.008;4.644;2023-02-26T21:04:18;10.38;;;3.77;;
69799;SDS011;67217;51.008;4.644;2023-02-26T21:06:46;10.50;;;3.12;;
69799;SDS011;67217;51.008;4.644;2023-02-26T21:09:14;10.03;;;3.37;;
69799;SDS011;67217;51.008;4.644;2023-02-26T21:11:42;5.90;;;2.80;;
69799;SDS011;67217;51.008;4.644;2023-02-26T21:14:10;10.95;;;3.75;;
69799;SDS011;67217;51.008;4.644;2023-02-26T21:16:37;7.42;;;3.90;;
69799;SDS011;67217;51.008;4.644;2023-02-26T21:19:06;10.48;;;3.70;;
69799;SDS011;67217;51.008;4.644;2023-02-26T21:21:33;7.95;;;3.12;;
69799;SDS011;67217;51.008;4.644;2023-02-26T21:24:01;7.85;;;3.08;;
69799;SDS011;67217;51.008;4.644;2023-02-26T21:26:29;8.15;;;2.87;;
69799;SDS011;67217;51.008;4.644;2023-02-26T21:28:57;11.83;;;2.92;;
69799;SDS011;67217;51.008;4.644;2023-02-26T21:31:25;13.03;;;2.95;;
69799;SDS011;67217;51.008;4.644;2023-02-26T21:33:53;11.33;;;2.87;;
69799;SDS011;67217;51.008;4.644;2023-02-26T21:36:21;10.53;;;2.90;;
69799;SDS011;67217;51.008;4.644;2023-02-26T21:38:49;7.30;;;2.80;;
69799;SDS011;67217;51.008;4.644;2023-02-26T21:41:17;11.12;;;2.58;;
69799;SDS011;67217;51.008;4.644;2023-02-26T21:43:46;7.12;;;2.75;;
69799;SDS011;67217;51.008;4.644;2023-02-26T21:46:15;6.87;;;2.58;;
69799;SDS011;67217;51.008;4.644;2023-02-26T21:48:43;6.67;;;2.52;;
69799;SDS011;67217;51.008;4.644;2023-02-26T21:53:40;7.08;;;2.40;;
69799;SDS011;67217;51.008;4.644;2023-02-26T21:56:10;9.73;;;2.80;;
69799;SDS011;67217;51.008;4.644;2023-02-26T21:58:38;6.40;;;2.30;;
69799;SDS011;67217;51.008;4.644;2023-02-26T22:01:06;11.05;;;2.67;;
69799;SDS011;67217;51.008;4.644;2023-02-26T22:03:35;12.25;;;2.80;;
69799;SDS011;67217;51.008;4.644;2023-02-26T22:06:04;8.60;;;3.30;;
69799;SDS011;67217;51.008;4.644;2023-02-26T22:08:32;7.72;;;2.67;;
69799;SDS011;67217;51.008;4.644;2023-02-26T22:11:01;9.85;;;2.72;;
69799;SDS011;67217;51.008;4.644;2023-02-26T22:13:29;9.63;;;2.70;;
69799;SDS011;67217;51.008;4.644;2023-02-26T22:15:57;7.87;;;3.00;;
69799;SDS011;67217;51.008;4.644;2023-02-26T22:18:24;10.20;;;3.15;;
69799;SDS011;67217;51.008;4.644;2023-02-26T22:20:52;11.43;;;2.95;;
69799;SDS011;67217;51.008;4.644;2023-02-26T22:23:20;9.88;;;2.77;;
69799;SDS011;67217;51.008;4.644;2023-02-26T22:25:48;7.92;;;2.52;;
69799;SDS011;67217;51.008;4.644;2023-02-26T22:28:16;7.25;;;2.52;;
69799;SDS011;67217;51.008;4.644;2023-02-26T22:30:44;7.65;;;2.60;;
69799;SDS011;67217;51.008;4.644;2023-02-26T22:33:12;6.58;;;2.25;;